sensor_id;sensor_type;location;lat;lon;timestamp;P1;durP1;ratioP1;P2;durP2;ratioP2
53313;SDS011;39202;51.468;7.146;2023-05-07T00:01:09;0.80;;;0.80;;
53313;SDS011;39202;51.468;7.146;2023-05-07T00:06:12;0.82;;;0.82;;
53313;SDS011;39202;51.468;7.146;2023-05-07T00:11:14;0.90;;;0.90;;
53313;SDS011;39202;51.468;7.146;2023-05-07T00:16:16;0.93;;;0.80;;
53313;SDS011;39202;51.468;7.146;2023-05-07T00:21:19;0.75;;;0.75;;
53313;SDS011;39202;51.468;7.146;2023-05-07T00:26:21;0.90;;;0.90;;
53313;SDS011;39202;51.468;7.146;2023-05-07T00:31:23;0.90;;;0.90;;
53313;SDS011;39202;51.468;7.146;2023-05-07T00:36:26;0.70;;;0.70;;
53313;SDS011;39202;51.468;7.146;2023-05-07T00:41:29;0.77;;;0.77;;
53313;SDS011;39202;51.468;7.146;2023-05-07T00:46:31;0.88;;;0.80;;
53313;SDS011;39202;51.468;7.146;2023-05-07T00:51:35;0.90;;;0.90;;
53313;SDS011;39202;51.468;7.146;2023-05-07T00:56:37;1.17;;;0.90;;
53313;SDS011;39202;51.468;7.146;2023-05-07T01:01:39;0.95;;;0.90;;
53313;SDS011;39202;51.468;7.146;2023-05-07T01:06:42;0.90;;;0.90;;
53313;SDS011;39202;51.468;7.146;2023-05-07T01:11:45;0.80;;;0.80;;
53313;SDS011;39202;51.468;7.146;2023-05-07T01:16:47;0.77;;;0.77;;
53313;SDS011;39202;51.468;7.146;2023-05-07T01:21:52;0.70;;;0.70;;
53313;SDS011;39202;51.468;7.146;2023-05-07T01:27:04;0.80;;;0.80;;
53313;SDS011;39202;51.468;7.146;2023-05-07T01:32:05;0.80;;;0.80;;
53313;SDS011;39202;51.468;7.146;2023-05-07T01:37:08;0.90;;;0.90;;
53313;SDS011;39202;51.468;7.146;2023-05-07T01:42:11;0.88;;;0.88;;
53313;SDS011;39202;51.468;7.146;2023-05-07T01:47:13;0.80;;;0.80;;
53313;SDS011;39202;51.468;7.146;2023-05-07T01:52:15;0.82;;;0.82;;
53313;SDS011;39202;51.468;7.146;2023-05-07T01:57:18;0.70;;;0.70;;
53313;SDS011;39202;51.468;7.146;2023-05-07T02:02:20;0.70;;;0.70;;
53313;SDS011;39202;51.468;7.146;2023-05-07T02:07:22;0.75;;;0.75;;
53313;SDS011;39202;51.468;7.146;2023-05-07T02:12:25;0.70;;;0.70;;
53313;SDS011;39202;51.468;7.146;2023-05-07T02:17:27;0.93;;;0.90;;
53313;SDS011;39202;51.468;7.146;2023-05-07T02:22:31;0.75;;;0.75;;
53313;SDS011;39202;51.468;7.146;2023-05-07T02:27:34;0.75;;;0.75;;
53313;SDS011;39202;51.468;7.146;2023-05-07T02:32:36;0.90;;;0.90;;
53313;SDS011;39202;51.468;7.146;2023-05-07T02:37:38;0.80;;;0.80;;
53313;SDS011;39202;51.468;7.146;2023-05-07T02:42:40;0.98;;;0.98;;
53313;SDS011;39202;51.468;7.146;2023-05-07T02:47:42;0.80;;;0.80;;
53313;SDS011;39202;51.468;7.146;2023-05-07T02:52:44;0.80;;;0.80;;
53313;SDS011;39202;51.468;7.146;2023-05-07T02:57:48;1.00;;;1.00;;
53313;SDS011;39202;51.468;7.146;2023-05-07T03:02:50;0.90;;;0.90;;
53313;SDS011;39202;51.468;7.146;2023-05-07T03:07:51;0.88;;;0.88;;
53313;SDS011;39202;51.468;7.146;2023-05-07T03:12:54;0.90;;;0.90;;
53313;SDS011;39202;51.468;7.146;2023-05-07T03:17:56;0.73;;;0.73;;
53313;SDS011;39202;51.468;7.146;2023-05-07T03:22:58;0.85;;;0.85;;
53313;SDS011;39202;51.468;7.146;2023-05-07T03:28:01;1.20;;;0.80;;
53313;SDS011;39202;51.468;7.146;2023-05-07T03:33:03;0.73;;;0.73;;
53313;SDS011;39202;51.468;7.146;2023-05-07T03:38:04;0.93;;;0.93;;
53313;SDS011;39202;51.468;7.146;2023-05-07T03:43:07;0.80;;;0.80;;
53313;SDS011;39202;51.468;7.146;2023-05-07T03:48:09;0.80;;;0.80;;
53313;SDS011;39202;51.468;7.146;2023-05-07T03:53:11;0.80;;;0.80;;
53313;SDS011;39202;51.468;7.146;2023-05-07T03:58:14;0.90;;;0.90;;
53313;SDS011;39202;51.468;7.146;2023-05-07T04:03:16;0.85;;;0.85;;
53313;SDS011;39202;51.468;7.146;2023-05-07T04:08:18;0.90;;;0.90;;
53313;SDS011;39202;51.468;7.146;2023-05-07T04:13:21;0.80;;;0.80;;
53313;SDS011;39202;51.468;7.146;2023-05-07T04:18:23;0.70;;;0.70;;
53313;SDS011;39202;51.468;7.146;2023-05-07T04:23:24;0.77;;;0.77;;
53313;SDS011;39202;51.468;7.146;2023-05-07T04:28:27;0.88;;;0.88;;
53313;SDS011;39202;51.468;7.146;2023-05-07T04:33:29;0.88;;;0.88;;
53313;SDS011;39202;51.468;7.146;2023-05-07T04:38:31;0.85;;;0.85;;
53313;SDS011;39202;51.468;7.146;2023-05-07T04:43:34;0.80;;;0.80;;
53313;SDS011;39202;51.468;7.146;2023-05-07T04:48:36;0.80;;;0.80;;
53313;SDS011;39202;51.468;7.146;2023-05-07T04:53:37;0.73;;;0.73;;
53313;SDS011;39202;51.468;7.146;2023-05-07T04:58:41;0.82;;;0.82;;
53313;SDS011;39202;51.468;7.146;2023-05-07T05:03:42;1.27;;;0.90;;
53313;SDS011;39202;51.468;7.146;2023-05-07T05:08:44;0.85;;;0.75;;
53313;SDS011;39202;51.468;7.146;2023-05-07T05:13:47;0.80;;;0.80;;
53313;SDS011;39202;51.468;7.146;2023-05-07T05:18:49;0.75;;;0.75;;
53313;SDS011;39202;51.468;7.146;2023-05-07T05:23:52;0.90;;;0.90;;
53313;SDS011;39202;51.468;7.146;2023-05-07T05:28:55;0.70;;;0.70;;
53313;SDS011;39202;51.468;7.146;2023-05-07T05:33:57;0.80;;;0.80;;
53313;SDS011;39202;51.468;7.146;2023-05-07T05:38:58;1.05;;;0.98;;
53313;SDS011;39202;51.468;7.146;2023-05-07T05:44:01;0.80;;;0.80;;
53313;SDS011;39202;51.468;7.146;2023-05-07T05:49:03;0.90;;;0.90;;
53313;SDS011;39202;51.468;7.146;2023-05-07T05:54:05;0.88;;;0.88;;
53313;SDS011;39202;51.468;7.146;2023-05-07T05:59:08;0.88;;;0.88;;
53313;SDS011;39202;51.468;7.146;2023-05-07T06:04:10;0.80;;;0.80;;
53313;SDS011;39202;51.468;7.146;2023-05-07T06:09:11;0.80;;;0.80;;
53313;SDS011;39202;51.468;7.146;2023-05-07T06:14:14;0.70;;;0.70;;
53313;SDS011;39202;51.468;7.146;2023-05-07T06:19:16;0.93;;;0.93;;
53313;SDS011;39202;51.468;7.146;2023-05-07T06:24:23;0.90;;;0.90;;
53313;SDS011;39202;51.468;7.146;2023-05-07T06:29:27;0.70;;;0.70;;
53313;SDS011;39202;51.468;7.146;2023-05-07T06:34:30;1.10;;;0.80;;
53313;SDS011;39202;51.468;7.146;2023-05-07T06:39:32;0.80;;;0.80;;
53313;SDS011;39202;51.468;7.146;2023-05-07T06:44:35;0.80;;;0.80;;
53313;SDS011;39202;51.468;7.146;2023-05-07T06:49:37;0.70;;;0.70;;
53313;SDS011;39202;51.468;7.146;2023-05-07T06:54:39;1.15;;;0.80;;
53313;SDS011;39202;51.468;7.146;2023-05-07T06:59:42;0.80;;;0.80;;
53313;SDS011;39202;51.468;7.146;2023-05-07T07:04:43;1.00;;;1.00;;
53313;SDS011;39202;51.468;7.146;2023-05-07T07:09:45;0.88;;;0.88;;
53313;SDS011;39202;51.468;7.146;2023-05-07T07:14:48;0.80;;;0.80;;
53313;SDS011;39202;51.468;7.146;2023-05-07T07:19:50;0.85;;;0.85;;
53313;SDS011;39202;51.468;7.146;2023-05-07T07:24:51;0.80;;;0.80;;
53313;SDS011;39202;51.468;7.146;2023-05-07T07:29:54;0.82;;;0.82;;
53313;SDS011;39202;51.468;7.146;2023-05-07T07:34:56;0.90;;;0.90;;
53313;SDS011;39202;51.468;7.146;2023-05-07T07:39:58;1.00;;;1.00;;
53313;SDS011;39202;51.468;7.146;2023-05-07T07:45:01;0.82;;;0.80;;
53313;SDS011;39202;51.468;7.146;2023-05-07T07:50:03;0.63;;;0.63;;
53313;SDS011;39202;51.468;7.146;2023-05-07T07:55:06;0.90;;;0.90;;
53313;SDS011;39202;51.468;7.146;2023-05-07T08:00:10;0.70;;;0.70;;
53313;SDS011;39202;51.468;7.146;2023-05-07T08:05:12;0.93;;;0.93;;
53313;SDS011;39202;51.468;7.146;2023-05-07T08:10:15;0.80;;;0.80;;
53313;SDS011;39202;51.468;7.146;2023-05-07T08:15:22;0.80;;;0.80;;
53313;SDS011;39202;51.468;7.146;2023-05-07T08:20:24;0.90;;;0.90;;
53313;SDS011;39202;51.468;7.146;2023-05-07T08:25:26;0.90;;;0.90;;
53313;SDS011;39202;51.468;7.146;2023-05-07T08:30:29;0.85;;;0.85;;
53313;SDS011;39202;51.468;7.146;2023-05-07T08:35:30;0.90;;;0.90;;
53313;SDS011;39202;51.468;7.146;2023-05-07T08:40:33;0.80;;;0.80;;
53313;SDS011;39202;51.468;7.146;2023-05-07T08:45:40;0.80;;;0.80;;
53313;SDS011;39202;51.468;7.146;2023-05-07T08:50:42;1.42;;;0.80;;
53313;SDS011;39202;51.468;7.146;2023-05-07T08:55:44;0.90;;;0.90;;
53313;SDS011;39202;51.468;7.146;2023-05-07T09:00:48;0.90;;;0.90;;
53313;SDS011;39202;51.468;7.146;2023-05-07T09:05:50;0.70;;;0.70;;
53313;SDS011;39202;51.468;7.146;2023-05-07T09:10:52;0.82;;;0.82;;
53313;SDS011;39202;51.468;7.146;2023-05-07T09:15:56;0.80;;;0.80;;
53313;SDS011;39202;51.468;7.146;2023-05-07T09:20:58;0.80;;;0.80;;
53313;SDS011;39202;51.468;7.146;2023-05-07T09:25:59;0.68;;;0.68;;
53313;SDS011;39202;51.468;7.146;2023-05-07T09:31:03;0.80;;;0.80;;
53313;SDS011;39202;51.468;7.146;2023-05-07T09:36:05;0.80;;;0.80;;
53313;SDS011;39202;51.468;7.146;2023-05-07T09:41:09;0.77;;;0.77;;
53313;SDS011;39202;51.468;7.146;2023-05-07T09:46:14;0.73;;;0.73;;
53313;SDS011;39202;51.468;7.146;2023-05-07T09:51:18;0.73;;;0.73;;
53313;SDS011;39202;51.468;7.146;2023-05-07T09:56:25;0.70;;;0.70;;
53313;SDS011;39202;51.468;7.146;2023-05-07T10:01:30;0.80;;;0.80;;
53313;SDS011;39202;51.468;7.146;2023-05-07T10:06:32;0.80;;;0.80;;
53313;SDS011;39202;51.468;7.146;2023-05-07T10:11:34;0.90;;;0.90;;
53313;SDS011;39202;51.468;7.146;2023-05-07T10:16:39;0.80;;;0.80;;
53313;SDS011;39202;51.468;7.146;2023-05-07T10:21:43;0.80;;;0.80;;
53313;SDS011;39202;51.468;7.146;2023-05-07T10:26:48;0.80;;;0.80;;
53313;SDS011;39202;51.468;7.146;2023-05-07T10:31:57;0.75;;;0.75;;
53313;SDS011;39202;51.468;7.146;2023-05-07T10:37:04;0.80;;;0.80;;
53313;SDS011;39202;51.468;7.146;2023-05-07T10:42:07;0.80;;;0.80;;
53313;SDS011;39202;51.468;7.146;2023-05-07T10:47:12;0.90;;;0.90;;
53313;SDS011;39202;51.468;7.146;2023-05-07T10:52:15;0.70;;;0.70;;
53313;SDS011;39202;51.468;7.146;2023-05-07T10:57:34;0.70;;;0.70;;
53313;SDS011;39202;51.468;7.146;2023-05-07T11:08:07;0.73;;;0.73;;
53313;SDS011;39202;51.468;7.146;2023-05-07T11:13:10;0.70;;;0.70;;
53313;SDS011;39202;51.468;7.146;2023-05-07T11:18:13;0.90;;;0.90;;
53313;SDS011;39202;51.468;7.146;2023-05-07T11:28:50;0.80;;;0.80;;
53313;SDS011;39202;51.468;7.146;2023-05-07T11:33:54;0.85;;;0.85;;
53313;SDS011;39202;51.468;7.146;2023-05-07T11:38:56;0.70;;;0.70;;
53313;SDS011;39202;51.468;7.146;2023-05-07T11:43:58;0.80;;;0.80;;
53313;SDS011;39202;51.468;7.146;2023-05-07T11:49:01;1.10;;;0.80;;
53313;SDS011;39202;51.468;7.146;2023-05-07T11:54:03;0.68;;;0.68;;
53313;SDS011;39202;51.468;7.146;2023-05-07T11:59:08;1.00;;;1.00;;
53313;SDS011;39202;51.468;7.146;2023-05-07T12:04:11;0.93;;;0.93;;
53313;SDS011;39202;51.468;7.146;2023-05-07T12:09:13;0.75;;;0.75;;
53313;SDS011;39202;51.468;7.146;2023-05-07T12:14:14;0.75;;;0.75;;
53313;SDS011;39202;51.468;7.146;2023-05-07T12:19:18;0.80;;;0.80;;
53313;SDS011;39202;51.468;7.146;2023-05-07T12:24:20;0.88;;;0.88;;
53313;SDS011;39202;51.468;7.146;2023-05-07T12:29:21;0.82;;;0.82;;
53313;SDS011;39202;51.468;7.146;2023-05-07T12:34:25;0.60;;;0.60;;
53313;SDS011;39202;51.468;7.146;2023-05-07T12:39:26;0.80;;;0.80;;
53313;SDS011;39202;51.468;7.146;2023-05-07T12:44:32;0.80;;;0.80;;
53313;SDS011;39202;51.468;7.146;2023-05-07T12:49:36;0.70;;;0.70;;
53313;SDS011;39202;51.468;7.146;2023-05-07T12:54:38;0.80;;;0.80;;
53313;SDS011;39202;51.468;7.146;2023-05-07T12:59:40;0.88;;;0.88;;
53313;SDS011;39202;51.468;7.146;2023-05-07T13:04:44;0.80;;;0.80;;
53313;SDS011;39202;51.468;7.146;2023-05-07T13:09:45;0.80;;;0.80;;
53313;SDS011;39202;51.468;7.146;2023-05-07T13:14:48;0.80;;;0.80;;
53313;SDS011;39202;51.468;7.146;2023-05-07T13:19:51;0.80;;;0.80;;
53313;SDS011;39202;51.468;7.146;2023-05-07T13:24:52;0.70;;;0.70;;
53313;SDS011;39202;51.468;7.146;2023-05-07T13:29:54;0.90;;;0.90;;
53313;SDS011;39202;51.468;7.146;2023-05-07T13:34:57;0.80;;;0.80;;
53313;SDS011;39202;51.468;7.146;2023-05-07T13:39:59;0.80;;;0.80;;
53313;SDS011;39202;51.468;7.146;2023-05-07T13:45:01;0.80;;;0.80;;
53313;SDS011;39202;51.468;7.146;2023-05-07T13:50:06;0.90;;;0.90;;
53313;SDS011;39202;51.468;7.146;2023-05-07T13:55:08;0.88;;;0.88;;
53313;SDS011;39202;51.468;7.146;2023-05-07T14:00:11;0.65;;;0.65;;
53313;SDS011;39202;51.468;7.146;2023-05-07T14:05:15;0.73;;;0.73;;
53313;SDS011;39202;51.468;7.146;2023-05-07T14:10:17;0.80;;;0.80;;
53313;SDS011;39202;51.468;7.146;2023-05-07T14:15:19;0.80;;;0.80;;
53313;SDS011;39202;51.468;7.146;2023-05-07T14:20:22;1.45;;;1.27;;
53313;SDS011;39202;51.468;7.146;2023-05-07T14:25:24;0.98;;;0.98;;
53313;SDS011;39202;51.468;7.146;2023-05-07T14:30:25;0.93;;;0.93;;
53313;SDS011;39202;51.468;7.146;2023-05-07T14:35:29;0.80;;;0.80;;
53313;SDS011;39202;51.468;7.146;2023-05-07T14:40:30;1.00;;;1.00;;
53313;SDS011;39202;51.468;7.146;2023-05-07T14:45:32;0.90;;;0.90;;
53313;SDS011;39202;51.468;7.146;2023-05-07T14:50:35;0.90;;;0.90;;
53313;SDS011;39202;51.468;7.146;2023-05-07T14:55:37;0.93;;;0.93;;
53313;SDS011;39202;51.468;7.146;2023-05-07T15:00:39;0.95;;;0.95;;
53313;SDS011;39202;51.468;7.146;2023-05-07T15:05:42;1.05;;;0.98;;
53313;SDS011;39202;51.468;7.146;2023-05-07T15:10:43;0.90;;;0.90;;
53313;SDS011;39202;51.468;7.146;2023-05-07T15:15:45;1.10;;;1.10;;
53313;SDS011;39202;51.468;7.146;2023-05-07T15:20:48;1.10;;;1.10;;
53313;SDS011;39202;51.468;7.146;2023-05-07T15:25:50;1.02;;;1.02;;
53313;SDS011;39202;51.468;7.146;2023-05-07T15:30:52;0.90;;;0.90;;
53313;SDS011;39202;51.468;7.146;2023-05-07T15:35:55;1.10;;;1.10;;
53313;SDS011;39202;51.468;7.146;2023-05-07T15:40:58;1.00;;;1.00;;
53313;SDS011;39202;51.468;7.146;2023-05-07T15:46:00;0.90;;;0.90;;
53313;SDS011;39202;51.468;7.146;2023-05-07T15:51:03;0.98;;;0.88;;
53313;SDS011;39202;51.468;7.146;2023-05-07T15:56:07;1.00;;;1.00;;
53313;SDS011;39202;51.468;7.146;2023-05-07T16:01:09;0.90;;;0.90;;
53313;SDS011;39202;51.468;7.146;2023-05-07T16:06:12;1.40;;;1.30;;
53313;SDS011;39202;51.468;7.146;2023-05-07T16:11:14;1.10;;;1.05;;
53313;SDS011;39202;51.468;7.146;2023-05-07T16:16:16;1.10;;;1.10;;
53313;SDS011;39202;51.468;7.146;2023-05-07T16:21:19;1.10;;;1.05;;
53313;SDS011;39202;51.468;7.146;2023-05-07T16:26:21;0.90;;;0.90;;
53313;SDS011;39202;51.468;7.146;2023-05-07T16:31:23;1.00;;;1.00;;
53313;SDS011;39202;51.468;7.146;2023-05-07T16:36:27;1.05;;;1.05;;
53313;SDS011;39202;51.468;7.146;2023-05-07T16:41:29;1.30;;;1.20;;
53313;SDS011;39202;51.468;7.146;2023-05-07T16:46:30;1.75;;;0.90;;
53313;SDS011;39202;51.468;7.146;2023-05-07T16:51:34;1.00;;;1.00;;
53313;SDS011;39202;51.468;7.146;2023-05-07T16:56:35;1.20;;;1.10;;
53313;SDS011;39202;51.468;7.146;2023-05-07T17:01:38;1.05;;;1.00;;
53313;SDS011;39202;51.468;7.146;2023-05-07T17:06:42;2.17;;;1.30;;
53313;SDS011;39202;51.468;7.146;2023-05-07T17:11:45;2.28;;;1.40;;
53313;SDS011;39202;51.468;7.146;2023-05-07T17:16:46;1.15;;;1.15;;
53313;SDS011;39202;51.468;7.146;2023-05-07T17:21:49;1.20;;;1.10;;
53313;SDS011;39202;51.468;7.146;2023-05-07T17:26:51;6.03;;;1.45;;
53313;SDS011;39202;51.468;7.146;2023-05-07T17:31:53;1.30;;;1.20;;
53313;SDS011;39202;51.468;7.146;2023-05-07T17:36:56;1.40;;;1.30;;
53313;SDS011;39202;51.468;7.146;2023-05-07T17:41:58;1.63;;;1.48;;
53313;SDS011;39202;51.468;7.146;2023-05-07T17:46:59;1.05;;;1.00;;
53313;SDS011;39202;51.468;7.146;2023-05-07T17:52:04;1.00;;;1.00;;
53313;SDS011;39202;51.468;7.146;2023-05-07T17:57:06;1.27;;;1.17;;
53313;SDS011;39202;51.468;7.146;2023-05-07T18:02:07;1.17;;;1.17;;
53313;SDS011;39202;51.468;7.146;2023-05-07T18:07:10;1.42;;;1.20;;
53313;SDS011;39202;51.468;7.146;2023-05-07T18:12:12;2.05;;;1.35;;
53313;SDS011;39202;51.468;7.146;2023-05-07T18:17:14;1.38;;;1.27;;
53313;SDS011;39202;51.468;7.146;2023-05-07T18:22:18;1.42;;;1.00;;
53313;SDS011;39202;51.468;7.146;2023-05-07T18:27:19;1.00;;;1.00;;
53313;SDS011;39202;51.468;7.146;2023-05-07T18:32:21;1.50;;;1.20;;
53313;SDS011;39202;51.468;7.146;2023-05-07T18:37:24;2.08;;;1.30;;
53313;SDS011;39202;51.468;7.146;2023-05-07T18:42:26;1.10;;;1.10;;
53313;SDS011;39202;51.468;7.146;2023-05-07T18:47:28;1.50;;;1.40;;
53313;SDS011;39202;51.468;7.146;2023-05-07T18:52:31;1.20;;;1.20;;
53313;SDS011;39202;51.468;7.146;2023-05-07T18:57:33;1.35;;;1.27;;
53313;SDS011;39202;51.468;7.146;2023-05-07T19:02:35;1.70;;;1.20;;
53313;SDS011;39202;51.468;7.146;2023-05-07T19:07:38;1.35;;;1.30;;
53313;SDS011;39202;51.468;7.146;2023-05-07T19:12:39;1.40;;;1.30;;
53313;SDS011;39202;51.468;7.146;2023-05-07T19:17:41;1.30;;;1.30;;
53313;SDS011;39202;51.468;7.146;2023-05-07T19:22:44;1.45;;;1.35;;
53313;SDS011;39202;51.468;7.146;2023-05-07T19:27:46;1.20;;;1.20;;
53313;SDS011;39202;51.468;7.146;2023-05-07T19:32:47;1.40;;;1.30;;
53313;SDS011;39202;51.468;7.146;2023-05-07T19:37:51;1.95;;;1.60;;
53313;SDS011;39202;51.468;7.146;2023-05-07T19:42:52;1.35;;;1.25;;
53313;SDS011;39202;51.468;7.146;2023-05-07T19:47:54;1.45;;;1.27;;
53313;SDS011;39202;51.468;7.146;2023-05-07T19:52:57;1.35;;;1.30;;
53313;SDS011;39202;51.468;7.146;2023-05-07T19:57:59;1.58;;;1.48;;
53313;SDS011;39202;51.468;7.146;2023-05-07T20:03:01;1.20;;;1.20;;
53313;SDS011;39202;51.468;7.146;2023-05-07T20:08:04;1.40;;;1.30;;
53313;SDS011;39202;51.468;7.146;2023-05-07T20:13:07;1.55;;;1.45;;
53313;SDS011;39202;51.468;7.146;2023-05-07T20:18:09;1.55;;;1.42;;
53313;SDS011;39202;51.468;7.146;2023-05-07T20:23:12;1.13;;;1.13;;
53313;SDS011;39202;51.468;7.146;2023-05-07T20:28:13;1.20;;;1.20;;
53313;SDS011;39202;51.468;7.146;2023-05-07T20:33:15;1.58;;;1.17;;
53313;SDS011;39202;51.468;7.146;2023-05-07T20:38:18;1.25;;;1.25;;
53313;SDS011;39202;51.468;7.146;2023-05-07T20:43:20;1.45;;;1.35;;
53313;SDS011;39202;51.468;7.146;2023-05-07T20:48:22;1.50;;;1.40;;
53313;SDS011;39202;51.468;7.146;2023-05-07T20:53:26;1.42;;;1.33;;
53313;SDS011;39202;51.468;7.146;2023-05-07T20:58:28;1.38;;;1.27;;
53313;SDS011;39202;51.468;7.146;2023-05-07T21:03:29;1.67;;;1.55;;
53313;SDS011;39202;51.468;7.146;2023-05-07T21:08:33;1.50;;;1.40;;
53313;SDS011;39202;51.468;7.146;2023-05-07T21:13:34;1.30;;;1.20;;
53313;SDS011;39202;51.468;7.146;2023-05-07T21:18:36;1.25;;;1.17;;
53313;SDS011;39202;51.468;7.146;2023-05-07T21:23:39;1.30;;;1.20;;
53313;SDS011;39202;51.468;7.146;2023-05-07T21:28:41;1.40;;;1.30;;
53313;SDS011;39202;51.468;7.146;2023-05-07T21:33:43;2.08;;;1.50;;
53313;SDS011;39202;51.468;7.146;2023-05-07T21:38:46;1.20;;;1.20;;
53313;SDS011;39202;51.468;7.146;2023-05-07T21:43:47;1.40;;;1.30;;
53313;SDS011;39202;51.468;7.146;2023-05-07T21:48:49;1.38;;;1.27;;
53313;SDS011;39202;51.468;7.146;2023-05-07T21:53:52;1.15;;;1.10;;
53313;SDS011;39202;51.468;7.146;2023-05-07T21:58:54;1.33;;;1.10;;
53313;SDS011;39202;51.468;7.146;2023-05-07T22:03:56;1.40;;;1.20;;
53313;SDS011;39202;51.468;7.146;2023-05-07T22:08:59;1.30;;;1.30;;
53313;SDS011;39202;51.468;7.146;2023-05-07T22:14:02;1.40;;;1.30;;
53313;SDS011;39202;51.468;7.146;2023-05-07T22:19:04;1.17;;;1.17;;
53313;SDS011;39202;51.468;7.146;2023-05-07T22:24:07;1.27;;;1.27;;
53313;SDS011;39202;51.468;7.146;2023-05-07T22:29:09;1.42;;;1.33;;
53313;SDS011;39202;51.468;7.146;2023-05-07T22:34:11;1.20;;;1.20;;
53313;SDS011;39202;51.468;7.146;2023-05-07T22:39:14;1.15;;;1.15;;
53313;SDS011;39202;51.468;7.146;2023-05-07T22:44:16;1.40;;;1.30;;
53313;SDS011;39202;51.468;7.146;2023-05-07T22:49:18;1.25;;;1.25;;
53313;SDS011;39202;51.468;7.146;2023-05-07T22:54:21;1.33;;;1.27;;
53313;SDS011;39202;51.468;7.146;2023-05-07T22:59:22;1.50;;;1.40;;
53313;SDS011;39202;51.468;7.146;2023-05-07T23:04:25;1.40;;;1.30;;
53313;SDS011;39202;51.468;7.146;2023-05-07T23:09:28;1.40;;;1.30;;
53313;SDS011;39202;51.468;7.146;2023-05-07T23:14:30;1.60;;;1.50;;
53313;SDS011;39202;51.468;7.146;2023-05-07T23:19:31;1.65;;;1.40;;
53313;SDS011;39202;51.468;7.146;2023-05-07T23:24:35;1.50;;;1.40;;
53313;SDS011;39202;51.468;7.146;2023-05-07T23:29:36;1.52;;;1.42;;
53313;SDS011;39202;51.468;7.146;2023-05-07T23:34:38;1.30;;;1.25;;
53313;SDS011;39202;51.468;7.146;2023-05-07T23:39:41;1.20;;;1.20;;
53313;SDS011;39202;51.468;7.146;2023-05-07T23:44:43;1.25;;;1.23;;
53313;SDS011;39202;51.468;7.146;2023-05-07T23:49:44;1.17;;;1.17;;
53313;SDS011;39202;51.468;7.146;2023-05-07T23:54:47;1.40;;;1.30;;
53313;SDS011;39202;51.468;7.146;2023-05-07T23:59:49;1.60;;;1.50;;
